Time;durP1;ratioP1;P1;durP2;ratioP2;P2;SDS_P1;SDS_P2;PMS_P1;PMS_P2;Temp;Humidity;BMP_temperature;BMP_pressure;BME280_temperature;BME280_humidity;BME280_pressure;Samples;Min_cycle;Max_cycle;Signal;HPM_P1;HPM_P2
2023/11/21 00:00:01;;;;;;;1.47;0.50;;;;;;;7.69;91.59;94932.75;5045645;28;20699;-78
2023/11/21 00:02:28;;;;;;;2.00;0.70;;;;;;;7.62;92.02;94935.91;5065788;28;20283;-79
2023/11/21 00:04:53;;;;;;;1.87;0.80;;;;;;;7.49;93.27;94934.59;5068663;28;20180;-78
2023/11/21 00:07:18;;;;;;;1.17;0.90;;;;;;;7.44;93.76;94932.47;5065938;28;20269;-79
2023/11/21 00:09:43;;;;;;;1.50;0.80;;;;;;;7.67;92.41;94938.84;5046116;28;20193;-78
2023/11/21 00:12:09;;;;;;;0.80;0.60;;;;;;;7.50;93.86;94925.91;5067957;28;20202;-78
2023/11/21 00:14:38;;;;;;;0.87;0.60;;;;;;;7.27;96.08;94926.28;5045690;28;20205;-79
2023/11/21 00:17:05;;;;;;;1.00;0.70;;;;;;;7.53;95.15;94935.97;5060635;28;20194;-79
2023/11/21 00:19:30;;;;;;;1.83;0.70;;;;;;;7.48;94.77;94927.81;5054557;28;20714;-78
2023/11/21 00:21:57;;;;;;;2.20;0.70;;;;;;;7.63;94.68;94927.19;5045298;28;20202;-77
2023/11/21 00:24:24;;;;;;;2.33;1.57;;;;;;;7.61;94.80;94934.28;5048231;28;20192;-79
2023/11/21 00:26:49;;;;;;;0.87;0.70;;;;;;;7.84;93.59;94924.34;5061921;28;20572;-79
2023/11/21 00:29:17;;;;;;;1.10;0.80;;;;;;;7.73;94.80;94921.16;5068061;28;20182;-79
2023/11/21 00:31:43;;;;;;;2.30;0.70;;;;;;;7.66;94.93;94926.91;5073618;28;20193;-78
2023/11/21 00:34:08;;;;;;;1.53;0.50;;;;;;;7.86;94.45;94924.19;5044578;28;20182;-78
2023/11/21 00:36:33;;;;;;;0.77;0.40;;;;;;;7.81;94.67;94923.84;5058153;28;20247;-78
2023/11/21 00:38:59;;;;;;;1.43;0.67;;;;;;;7.85;94.56;94920.00;5060707;28;20206;-79
2023/11/21 00:41:27;;;;;;;1.97;0.60;;;;;;;7.87;95.16;94924.06;5048261;28;20200;-78
2023/11/21 00:43:53;;;;;;;2.40;0.80;;;;;;;7.90;94.95;94923.78;5069843;28;20647;-79
2023/11/21 00:46:18;;;;;;;1.90;0.60;;;;;;;7.73;95.98;94916.00;5069402;28;20192;-79
2023/11/21 00:48:43;;;;;;;0.97;0.43;;;;;;;7.63;97.13;94918.63;5066185;28;20174;-79
2023/11/21 00:51:09;;;;;;;1.20;0.60;;;;;;;7.73;97.39;94921.16;5055636;28;20235;-79
2023/11/21 00:53:34;;;;;;;1.03;0.60;;;;;;;7.80;96.53;94919.63;5048441;28;20242;-78
2023/11/21 00:55:59;;;;;;;1.27;0.70;;;;;;;7.78;96.87;94916.38;5072223;28;20181;-78
2023/11/21 00:58:25;;;;;;;0.53;0.50;;;;;;;7.82;96.19;94920.28;5049538;28;20556;-79
2023/11/21 01:00:50;;;;;;;0.90;0.60;;;;;;;7.77;96.01;94923.28;5066523;28;20677;-79
2023/11/21 01:03:16;;;;;;;2.17;0.50;;;;;;;7.92;94.78;94921.84;5049881;28;20212;-79
2023/11/21 01:05:41;;;;;;;1.80;0.67;;;;;;;7.92;94.54;94921.03;5045672;28;20190;-79
2023/11/21 01:08:06;;;;;;;0.77;0.70;;;;;;;7.94;94.61;94926.88;5063757;28;20177;-79
2023/11/21 01:10:34;;;;;;;1.73;0.77;;;;;;;7.94;94.29;94921.69;5064336;28;20174;-78
2023/11/21 01:12:59;;;;;;;1.47;0.80;;;;;;;7.95;94.32;94923.31;5049367;28;20190;-78
2023/11/21 01:15:25;;;;;;;1.00;0.70;;;;;;;7.92;94.66;94926.19;5051902;28;20206;-79
2023/11/21 01:17:51;;;;;;;0.80;0.50;;;;;;;7.86;94.91;94930.22;5048760;28;20189;-78
2023/11/21 01:20:17;;;;;;;1.47;0.60;;;;;;;7.97;94.35;94934.34;5042737;28;20617;-79
2023/11/21 01:22:42;;;;;;;0.83;0.63;;;;;;;7.87;95.09;94931.03;5061554;28;20202;-78
2023/11/21 01:25:08;;;;;;;0.97;0.57;;;;;;;7.91;95.13;94932.34;5065154;28;20264;-79
2023/11/21 01:27:34;;;;;;;1.53;0.40;;;;;;;7.82;94.73;94928.03;5063985;28;20185;-79
2023/11/21 01:30:01;;;;;;;0.60;0.60;;;;;;;8.02;94.13;94933.91;5048227;28;20188;-79
2023/11/21 01:32:26;;;;;;;1.53;0.50;;;;;;;7.86;94.75;94932.78;5046710;28;20662;-79
2023/11/21 01:34:51;;;;;;;1.13;0.53;;;;;;;7.96;94.58;94937.91;5046800;28;20187;-79
2023/11/21 01:37:17;;;;;;;1.40;0.50;;;;;;;8.01;94.42;94927.91;5073287;28;20207;-78
2023/11/21 01:39:43;;;;;;;3.17;0.70;;;;;;;7.99;93.86;94926.44;5063433;28;20201;-78
2023/11/21 01:42:09;;;;;;;2.10;0.60;;;;;;;8.03;93.30;94933.75;5060303;28;20255;-79
2023/11/21 01:44:34;;;;;;;1.47;0.60;;;;;;;8.08;93.75;94926.38;5046718;28;20197;-79
2023/11/21 01:47:04;;;;;;;0.50;0.40;;;;;;;8.09;93.73;94925.41;5071180;28;20189;-78
2023/11/21 01:49:30;;;;;;;0.60;0.50;;;;;;;8.20;93.03;94925.19;5066455;28;20178;-79
2023/11/21 01:51:56;;;;;;;1.07;0.60;;;;;;;8.13;93.50;94918.19;5048506;28;20239;-79
2023/11/21 01:54:22;;;;;;;1.73;0.60;;;;;;;8.10;93.71;94919.28;5043267;28;20186;-78
2023/11/21 01:56:47;;;;;;;0.87;0.50;;;;;;;8.10;93.92;94923.63;5042032;28;20197;-79
2023/11/21 01:59:16;;;;;;;1.53;0.50;;;;;;;8.08;94.42;94928.16;5046259;28;20692;-78
2023/11/21 02:01:42;;;;;;;0.33;0.30;;;;;;;8.08;94.23;94923.78;5061915;28;20229;-78
2023/11/21 02:04:08;;;;;;;0.63;0.50;;;;;;;8.08;94.62;94921.19;5061897;28;20237;-78
2023/11/21 02:06:34;;;;;;;2.47;0.60;;;;;;;8.06;94.42;94917.94;5043735;28;20189;-77
2023/11/21 02:08:59;;;;;;;1.00;0.43;;;;;;;8.12;94.33;94921.69;5072660;28;20192;-77
2023/11/21 02:11:27;;;;;;;1.27;0.60;;;;;;;8.13;94.08;94919.00;5068578;28;20265;-78
2023/11/21 02:13:53;;;;;;;0.70;0.53;;;;;;;8.12;94.16;94917.34;5065601;28;20208;-78
2023/11/21 02:16:20;;;;;;;1.83;0.37;;;;;;;8.07;94.55;94919.56;5048485;28;20189;-78
2023/11/21 02:18:48;;;;;;;1.53;0.50;;;;;;;8.10;94.19;94914.09;5066071;28;20242;-78
2023/11/21 02:21:14;;;;;;;2.77;0.70;;;;;;;8.10;94.57;94921.84;5058934;28;20209;-79
2023/11/21 02:23:42;;;;;;;0.57;0.50;;;;;;;8.10;94.46;94921.84;5052347;28;20182;-79
2023/11/21 02:26:07;;;;;;;0.87;0.43;;;;;;;7.94;96.10;94924.28;5069991;28;20186;-77
2023/11/21 02:28:33;;;;;;;0.50;0.50;;;;;;;7.92;96.07;94921.84;5067009;28;20173;-79
2023/11/21 02:30:59;;;;;;;0.80;0.70;;;;;;;7.94;95.95;94927.69;5058149;28;20208;-79
2023/11/21 02:33:24;;;;;;;2.73;0.80;;;;;;;8.07;95.05;94921.34;5046807;28;20265;-79
2023/11/21 02:35:54;;;;;;;0.70;0.60;;;;;;;8.08;94.63;94916.03;5049495;28;20187;-79
2023/11/21 02:38:20;;;;;;;1.30;0.60;;;;;;;8.10;94.42;94918.47;5072665;28;20640;-79
2023/11/21 02:40:45;;;;;;;0.90;0.57;;;;;;;7.80;96.51;94917.03;5078455;28;20189;-79
2023/11/21 02:43:11;;;;;;;0.77;0.50;;;;;;;7.93;95.55;94914.91;5072112;28;20231;-80
2023/11/21 02:45:36;;;;;;;0.77;0.50;;;;;;;7.92;95.63;94918.44;5049816;28;20276;-79
2023/11/21 02:48:02;;;;;;;1.53;0.60;;;;;;;8.05;95.09;94910.34;5073342;28;20212;-78
2023/11/21 02:50:27;;;;;;;1.83;0.40;;;;;;;7.96;95.36;94914.63;5074707;28;20195;-79
2023/11/21 02:52:52;;;;;;;1.70;0.63;;;;;;;8.01;95.07;94916.75;5052965;28;20210;-79
2023/11/21 02:55:18;;;;;;;1.43;0.73;;;;;;;7.86;95.71;94906.09;5054178;28;20186;-79
2023/11/21 02:57:43;;;;;;;0.53;0.50;;;;;;;7.61;95.84;94907.63;5072095;28;20201;-79
2023/11/21 03:00:14;;;;;;;0.40;0.40;;;;;;;7.93;94.85;94899.38;5070701;28;20190;-79
2023/11/21 03:02:40;;;;;;;1.30;0.60;;;;;;;7.82;95.38;94910.75;5057081;28;20202;-79
2023/11/21 03:05:06;;;;;;;0.87;0.53;;;;;;;7.95;94.93;94905.22;5050550;28;20782;-79
2023/11/21 03:07:32;;;;;;;1.47;0.70;;;;;;;8.00;94.45;94908.19;5066293;28;20279;-80
2023/11/21 03:09:57;;;;;;;0.63;0.50;;;;;;;7.98;94.93;94910.13;5051527;28;20185;-81
2023/11/21 03:12:22;;;;;;;1.60;0.60;;;;;;;8.01;94.30;94909.81;5076260;28;20201;-79
2023/11/21 03:14:48;;;;;;;1.93;0.70;;;;;;;7.94;94.70;94904.41;5072795;28;20196;-79
2023/11/21 03:17:14;;;;;;;0.63;0.57;;;;;;;7.92;94.92;94902.94;5056710;28;20185;-79
2023/11/21 03:19:41;;;;;;;0.77;0.77;;;;;;;7.90;95.19;94910.84;5048063;28;20194;-79
2023/11/21 03:22:06;;;;;;;0.80;0.80;;;;;;;7.84;95.39;94914.00;5073791;28;20621;-78
2023/11/21 03:24:32;;;;;;;1.03;0.90;;;;;;;7.74;96.37;94908.09;5056692;28;20220;-79
2023/11/21 03:26:57;;;;;;;1.67;0.90;;;;;;;7.72;96.27;94915.19;5052143;28;20189;-77
2023/11/21 03:29:22;;;;;;;0.87;0.87;;;;;;;7.76;95.94;94911.34;5049339;28;20177;-79
2023/11/21 03:31:48;;;;;;;0.80;0.80;;;;;;;7.94;94.82;94924.28;5047617;28;20202;-79
2023/11/21 03:34:28;;;;;;;1.60;0.90;;;;;;;7.95;94.89;94926.75;5058799;28;20191;-79
2023/11/21 03:36:53;;;;;;;2.50;1.00;;;;;;;7.98;94.98;94930.81;5071160;28;20698;-78
2023/11/21 03:39:22;;;;;;;1.53;0.80;;;;;;;7.79;96.01;94931.75;5053540;28;20224;-79
2023/11/21 03:41:48;;;;;;;1.10;1.00;;;;;;;7.86;95.46;94930.22;5047062;28;20210;-79
2023/11/21 03:44:13;;;;;;;2.40;0.93;;;;;;;7.86;95.39;94921.59;5047968;28;20582;-79
2023/11/21 03:46:38;;;;;;;0.90;0.77;;;;;;;7.75;96.55;94917.47;5072356;28;20640;-78
2023/11/21 03:49:04;;;;;;;2.17;0.70;;;;;;;7.81;95.66;94923.84;5054085;28;20181;-79
2023/11/21 03:51:29;;;;;;;0.63;0.63;;;;;;;7.85;95.18;94920.00;5056335;28;20748;-79
2023/11/21 03:53:54;;;;;;;1.30;1.20;;;;;;;7.76;95.47;94913.09;5066312;28;20186;-80
2023/11/21 03:56:23;;;;;;;0.80;0.70;;;;;;;7.76;95.24;94915.69;5077633;28;20599;-79
2023/11/21 03:58:48;;;;;;;0.90;0.77;;;;;;;7.65;96.01;94930.44;5068512;28;20240;-79
2023/11/21 04:01:24;;;;;;;1.53;0.80;;;;;;;7.71;95.72;94928.25;5051520;28;20197;-79
2023/11/21 04:03:49;;;;;;;0.73;0.73;;;;;;;7.64;96.01;94928.00;5065645;28;20188;-79
2023/11/21 04:06:17;;;;;;;2.17;1.00;;;;;;;7.52;96.32;94922.25;5069033;28;20203;-79
2023/11/21 04:08:42;;;;;;;0.73;0.73;;;;;;;7.68;95.33;94926.75;5060605;28;20208;-78
2023/11/21 04:11:08;;;;;;;1.03;0.80;;;;;;;7.72;94.73;94917.75;5071478;28;20220;-80
2023/11/21 04:13:33;;;;;;;2.30;1.10;;;;;;;7.72;94.89;94914.38;5053946;28;20190;-79
2023/11/21 04:15:58;;;;;;;1.80;1.23;;;;;;;7.63;95.37;94922.03;5070600;28;20231;-79
2023/11/21 04:18:24;;;;;;;2.03;0.80;;;;;;;7.75;94.93;94919.25;5056645;28;20206;-79
2023/11/21 04:20:49;;;;;;;1.37;1.00;;;;;;;7.67;95.67;94928.53;5072641;28;20185;-78
2023/11/21 04:23:15;;;;;;;0.90;0.90;;;;;;;7.70;95.32;94930.03;5055047;28;20181;-80
2023/11/21 04:25:40;;;;;;;1.43;1.20;;;;;;;7.71;95.31;94931.66;5050070;28;20182;-79
2023/11/21 04:28:06;;;;;;;1.33;1.03;;;;;;;7.64;95.86;94944.34;5054348;28;20185;-79
2023/11/21 04:30:32;;;;;;;3.50;1.10;;;;;;;7.80;95.27;94938.53;5056006;28;20208;-79
2023/11/21 04:32:57;;;;;;;1.27;0.90;;;;;;;7.81;94.83;94934.19;5048676;28;20232;-79
2023/11/21 04:35:23;;;;;;;2.27;1.00;;;;;;;7.81;94.97;94944.50;5074672;28;20181;-79
2023/11/21 04:37:48;;;;;;;0.90;0.70;;;;;;;7.80;94.56;94948.88;5067479;28;20197;-79
2023/11/21 04:40:14;;;;;;;2.90;1.00;;;;;;;7.82;95.05;94956.47;5051203;28;20185;-78
2023/11/21 04:42:39;;;;;;;1.47;1.10;;;;;;;7.74;95.78;94951.22;5069514;28;20236;-79
2023/11/21 04:45:09;;;;;;;1.37;0.90;;;;;;;7.79;95.55;94951.59;5062597;28;20186;-79
2023/11/21 04:47:35;;;;;;;1.40;1.10;;;;;;;7.84;94.94;94955.38;5068251;28;20182;-79
2023/11/21 04:50:00;;;;;;;0.90;0.90;;;;;;;7.85;95.09;94958.75;5052430;28;20276;-79
2023/11/21 04:52:25;;;;;;;1.13;0.80;;;;;;;7.88;94.79;94961.06;5051792;28;20584;-79
2023/11/21 04:54:51;;;;;;;1.50;1.23;;;;;;;7.83;94.96;94953.75;5044630;28;20186;-79
2023/11/21 04:57:18;;;;;;;1.57;1.10;;;;;;;7.73;95.48;94947.00;5044259;28;20177;-79
2023/11/21 04:59:44;;;;;;;1.13;0.73;;;;;;;7.60;96.64;94940.41;5071729;28;20729;-78
2023/11/21 05:02:09;;;;;;;1.23;0.80;;;;;;;7.63;96.24;94947.88;5068824;28;20206;-79
2023/11/21 05:04:34;;;;;;;1.07;0.90;;;;;;;7.62;95.82;94946.25;5070532;28;20192;-78
2023/11/21 05:07:00;;;;;;;0.90;0.80;;;;;;;7.47;96.95;94939.13;5045347;28;20182;-80
2023/11/21 05:09:26;;;;;;;2.50;1.10;;;;;;;7.45;96.83;94947.00;5063711;28;20178;-80
2023/11/21 05:11:53;;;;;;;1.77;1.40;;;;;;;7.44;96.43;94945.38;5071121;28;20272;-79
2023/11/21 05:14:18;;;;;;;1.00;0.90;;;;;;;7.40;96.57;94944.03;5072019;28;20193;-79
2023/11/21 05:16:44;;;;;;;0.77;0.77;;;;;;;7.40;96.68;94949.19;5055107;28;20185;-79
2023/11/21 05:19:09;;;;;;;2.03;0.90;;;;;;;7.29;97.09;94951.97;5063474;28;20228;-79
2023/11/21 05:21:35;;;;;;;1.53;0.80;;;;;;;7.44;96.80;94952.31;5075762;28;20205;-79
2023/11/21 05:24:01;;;;;;;1.47;0.87;;;;;;;7.55;96.14;94952.94;5053674;28;20177;-79
2023/11/21 05:26:26;;;;;;;1.67;0.83;;;;;;;7.61;95.15;94957.53;5068916;28;20255;-79
2023/11/21 05:28:52;;;;;;;1.00;0.90;;;;;;;7.62;95.22;94958.34;5066593;28;20170;-78
2023/11/21 05:31:17;;;;;;;1.83;1.20;;;;;;;7.57;95.57;94957.97;5046569;28;20683;-80
2023/11/21 05:33:42;;;;;;;2.90;1.30;;;;;;;7.60;95.40;94958.50;5067849;28;20193;-77
2023/11/21 05:36:09;;;;;;;2.63;1.30;;;;;;;7.59;95.17;94967.19;5049280;28;20208;-80
2023/11/21 05:38:35;;;;;;;3.43;1.20;;;;;;;7.55;95.33;94975.38;5064023;28;20209;-79
2023/11/21 05:41:01;;;;;;;2.20;1.70;;;;;;;7.53;95.21;94978.13;5033056;28;20199;-78
2023/11/21 05:43:29;;;;;;;1.50;1.40;;;;;;;7.44;95.50;94981.56;5074375;28;20184;-79
2023/11/21 05:45:54;;;;;;;1.87;1.43;;;;;;;7.47;95.42;94978.69;5050796;28;20659;-78
2023/11/21 05:48:20;;;;;;;2.33;1.30;;;;;;;7.34;96.35;94979.00;5050020;28;20181;-79
2023/11/21 05:50:46;;;;;;;1.50;1.40;;;;;;;7.37;96.00;94989.06;5049183;28;20181;-79
2023/11/21 05:53:11;;;;;;;2.17;1.80;;;;;;;7.42;95.96;94980.06;5063454;28;20186;-78
2023/11/21 05:55:36;;;;;;;2.40;2.07;;;;;;;7.40;95.92;94980.19;5072099;28;20185;-78
2023/11/21 05:58:02;;;;;;;2.43;1.83;;;;;;;7.41;95.77;94986.19;5068754;28;20194;-78
2023/11/21 06:00:28;;;;;;;1.83;1.50;;;;;;;7.39;95.81;94986.31;5051349;28;20177;-78
2023/11/21 06:02:53;;;;;;;1.50;1.40;;;;;;;7.43;95.25;94987.69;5064363;28;20249;-79
2023/11/21 06:05:23;;;;;;;1.40;1.30;;;;;;;7.36;95.32;94984.84;5067284;28;20181;-78
2023/11/21 06:07:48;;;;;;;3.03;1.70;;;;;;;7.36;94.91;94992.59;5039423;28;20174;-79
2023/11/21 06:10:14;;;;;;;1.73;1.60;;;;;;;7.19;96.63;94993.31;5045097;28;20173;-79
2023/11/21 06:12:40;;;;;;;3.27;1.37;;;;;;;7.33;95.41;94995.47;5048835;28;20236;-78
2023/11/21 06:15:08;;;;;;;2.73;2.20;;;;;;;7.43;95.22;95000.59;5066867;28;20701;-78
2023/11/21 06:17:36;;;;;;;5.80;4.27;;;;;;;7.56;94.34;95002.84;5055656;28;20202;-79
2023/11/21 06:20:09;;;;;;;6.73;4.67;;;;;;;7.62;94.13;95010.03;5064530;28;20217;-78
2023/11/21 06:22:38;;;;;;;5.07;4.30;;;;;;;7.66;94.04;95009.59;5063651;28;20201;-79
2023/11/21 06:25:05;;;;;;;5.10;4.27;;;;;;;7.65;93.86;95013.16;5063988;28;20559;-79
2023/11/21 06:27:36;;;;;;;14.83;8.63;;;;;;;7.67;93.90;95013.81;5067344;28;20549;-78
2023/11/21 06:30:01;;;;;;;29.50;15.83;;;;;;;7.72;94.14;95012.56;5040699;28;20182;-78
2023/11/21 06:32:29;;;;;;;48.83;22.00;;;;;;;7.66;93.95;95014.75;5039271;28;20213;-79
2023/11/21 06:34:55;;;;;;;29.67;15.97;;;;;;;7.78;93.79;95007.66;5062598;28;20180;-78
2023/11/21 06:37:23;;;;;;;16.20;11.20;;;;;;;7.82;93.61;95013.34;5065249;28;20202;-78
2023/11/21 06:39:54;;;;;;;11.33;8.97;;;;;;;7.80;93.69;95020.44;5066412;28;20706;-79
2023/11/21 06:42:19;;;;;;;5.63;4.20;;;;;;;7.79;94.11;95014.44;5043101;28;20204;-78
2023/11/21 06:44:45;;;;;;;4.33;2.67;;;;;;;7.77;94.37;95020.69;5045043;28;20189;-79
2023/11/21 06:47:11;;;;;;;6.27;5.27;;;;;;;7.83;94.12;95022.72;5066876;28;20185;-80
2023/11/21 06:49:38;;;;;;;6.67;6.07;;;;;;;7.88;93.92;95021.34;5049671;28;20185;-79
2023/11/21 06:52:04;;;;;;;6.83;6.13;;;;;;;7.90;93.41;95021.19;5063050;28;20240;-79
2023/11/21 06:54:30;;;;;;;53.70;30.57;;;;;;;7.94;93.63;95025.09;5042350;28;20183;-79
2023/11/21 06:56:56;;;;;;;41.30;21.43;;;;;;;7.92;93.55;95025.25;5068001;28;20260;-78
2023/11/21 06:59:21;;;;;;;14.43;10.20;;;;;;;7.90;93.76;95036.72;5068408;28;20240;-79
2023/11/21 07:01:47;;;;;;;22.63;19.40;;;;;;;7.91;93.51;95044.31;5066653;28;20205;-79
2023/11/21 07:04:12;;;;;;;13.17;11.77;;;;;;;7.93;93.51;95041.59;5064979;28;20189;-78
2023/11/21 07:06:37;;;;;;;11.90;10.80;;;;;;;7.76;93.55;95042.34;5042845;28;20213;-79
2023/11/21 07:09:03;;;;;;;11.50;10.40;;;;;;;7.82;93.96;95040.00;5045719;28;20178;-78
2023/11/21 07:11:28;;;;;;;4.93;4.30;;;;;;;7.88;93.42;95054.13;5052062;28;20212;-79
2023/11/21 07:13:54;;;;;;;3.17;2.90;;;;;;;7.90;93.01;95047.88;5049828;28;20181;-78
2023/11/21 07:16:19;;;;;;;3.50;2.37;;;;;;;7.90;93.25;95055.63;5049785;28;20177;-81
2023/11/21 07:18:44;;;;;;;2.70;2.47;;;;;;;7.92;93.25;95056.28;5060769;28;20239;-76
2023/11/21 07:21:11;;;;;;;4.33;2.73;;;;;;;7.77;94.22;95057.69;5049728;28;20213;-78
2023/11/21 07:23:37;;;;;;;4.53;3.17;;;;;;;7.85;94.13;95067.34;5064474;28;20197;-78
2023/11/21 07:26:02;;;;;;;5.10;3.63;;;;;;;7.90;93.49;95072.91;5055301;28;20202;-78
2023/11/21 07:28:29;;;;;;;5.17;4.00;;;;;;;7.93;93.76;95075.19;5067148;28;20172;-77
2023/11/21 07:30:55;;;;;;;4.00;3.60;;;;;;;7.94;94.18;95080.22;5061482;28;20205;-78
2023/11/21 07:33:21;;;;;;;5.73;4.10;;;;;;;7.96;94.17;95077.50;5069448;28;20182;-78
2023/11/21 07:35:46;;;;;;;4.13;3.53;;;;;;;8.01;94.18;95084.81;5081797;28;20181;-77
2023/11/21 07:38:13;;;;;;;4.03;3.30;;;;;;;8.09;93.81;95077.97;5070693;28;20236;-77
2023/11/21 07:40:38;;;;;;;3.67;3.00;;;;;;;8.09;93.70;95085.75;5063897;28;20192;-77
2023/11/21 07:43:03;;;;;;;4.60;3.30;;;;;;;8.13;93.81;95083.69;5085171;28;20189;-78
2023/11/21 07:45:28;;;;;;;9.43;6.67;;;;;;;8.18;93.68;95081.47;5080608;28;20216;-78
2023/11/21 07:47:55;;;;;;;3.70;2.63;;;;;;;8.18;93.44;95094.41;5068397;28;20188;-78
2023/11/21 07:50:21;;;;;;;3.03;1.97;;;;;;;8.27;93.37;95090.97;5082156;28;20194;-77
2023/11/21 07:52:49;;;;;;;4.87;3.27;;;;;;;8.09;93.13;95096.09;5070126;28;20181;-77
2023/11/21 07:55:15;;;;;;;2.73;2.53;;;;;;;8.35;92.83;95095.44;5086074;28;20170;-78
2023/11/21 07:57:40;;;;;;;2.90;2.60;;;;;;;8.38;92.35;95098.53;5064397;28;20228;-78
2023/11/21 08:00:09;;;;;;;1.43;1.30;;;;;;;8.39;92.43;95102.78;5085340;28;20213;-78
2023/11/21 08:02:34;;;;;;;1.40;1.30;;;;;;;8.43;91.77;95101.53;5073398;28;20201;-78
2023/11/21 08:05:00;;;;;;;13.37;6.30;;;;;;;8.31;91.81;95101.84;5074274;28;20185;-79
2023/11/21 08:07:26;;;;;;;37.03;17.07;;;;;;;8.43;92.20;95105.88;5063802;28;20190;-79
2023/11/21 08:09:52;;;;;;;19.57;8.10;;;;;;;8.49;92.09;95105.31;5051587;28;20178;-80
2023/11/21 08:12:18;;;;;;;10.17;4.90;;;;;;;8.54;91.82;95108.25;5056833;28;20232;-80
2023/11/21 08:14:44;;;;;;;3.73;2.53;;;;;;;8.47;91.82;95109.78;5073997;28;20242;-79
2023/11/21 08:17:10;;;;;;;3.83;1.83;;;;;;;8.57;92.09;95102.81;5071859;28;20211;-79
2023/11/21 08:19:36;;;;;;;10.43;9.43;;;;;;;8.61;92.03;95105.91;5051913;28;20198;-80
2023/11/21 08:22:02;;;;;;;11.87;10.70;;;;;;;8.44;92.44;95107.50;5068814;28;20616;-79
2023/11/21 08:24:27;;;;;;;5.47;5.07;;;;;;;8.57;92.21;95109.72;5054903;28;20189;-80
2023/11/21 08:26:54;;;;;;;4.17;3.87;;;;;;;8.61;92.35;95119.66;5055530;28;20964;-79
2023/11/21 08:29:19;;;;;;;11.13;10.03;;;;;;;8.62;91.82;95113.53;5048891;28;20590;-79
2023/11/21 08:31:46;;;;;;;4.80;4.43;;;;;;;8.63;92.29;95114.34;5047219;28;20224;-80
2023/11/21 08:34:12;;;;;;;9.07;8.30;;;;;;;8.77;92.28;95116.44;5072158;28;20186;-79
2023/11/21 08:36:42;;;;;;;7.13;6.53;;;;;;;8.89;91.96;95117.84;5053126;28;20198;-79
2023/11/21 08:39:08;;;;;;;3.43;3.13;;;;;;;8.86;91.78;95117.34;5051642;28;20213;-78
2023/11/21 08:41:33;;;;;;;2.80;2.07;;;;;;;8.93;91.60;95119.19;5055323;28;20343;-79
2023/11/21 08:43:58;;;;;;;2.63;2.43;;;;;;;9.00;91.15;95120.19;5048708;28;20256;-79
2023/11/21 08:46:25;;;;;;;1.80;1.70;;;;;;;9.03;91.18;95132.06;5053914;28;20189;-79
2023/11/21 08:48:52;;;;;;;1.30;1.20;;;;;;;9.09;91.06;95134.84;5072224;28;20721;-79
2023/11/21 08:51:17;;;;;;;2.73;1.40;;;;;;;8.93;91.75;95139.09;5055588;28;20200;-80
2023/11/21 08:53:43;;;;;;;1.37;1.20;;;;;;;8.75;91.70;95134.72;5073946;28;20185;-78
2023/11/21 08:56:12;;;;;;;0.80;0.80;;;;;;;8.77;92.49;95135.38;5069925;28;20276;-78
2023/11/21 08:58:37;;;;;;;8.43;3.93;;;;;;;8.74;92.79;95133.06;5060327;28;20767;-79
2023/11/21 09:01:04;;;;;;;2.77;2.00;;;;;;;8.78;92.87;95131.81;5055296;28;20201;-78
2023/11/21 09:03:29;;;;;;;2.63;2.30;;;;;;;8.88;92.84;95133.53;5069015;28;20189;-78
2023/11/21 09:05:54;;;;;;;5.77;4.50;;;;;;;8.93;92.67;95139.09;5066878;28;20249;-78
2023/11/21 09:08:21;;;;;;;11.17;8.10;;;;;;;8.97;91.87;95143.00;5084441;28;20185;-79
2023/11/21 09:10:47;;;;;;;15.47;10.07;;;;;;;8.99;92.08;95143.66;5062385;28;20166;-78
2023/11/21 09:13:13;;;;;;;7.80;4.57;;;;;;;8.99;92.07;95154.03;5078631;28;20186;-78
2023/11/21 09:15:38;;;;;;;29.90;14.60;;;;;;;8.82;92.75;95152.22;5078159;28;20613;-78
2023/11/21 09:18:04;;;;;;;29.53;16.27;;;;;;;8.59;93.09;95150.06;5076680;28;20229;-79
2023/11/21 09:20:30;;;;;;;4.73;4.20;;;;;;;8.71;93.46;95151.47;5071908;28;20196;-79
2023/11/21 09:22:56;;;;;;;4.23;3.90;;;;;;;8.76;92.94;95159.63;5051661;28;20201;-80
2023/11/21 09:25:22;;;;;;;17.10;15.73;;;;;;;8.68;93.67;95159.53;5057848;28;20203;-79
2023/11/21 09:27:47;;;;;;;4.37;4.00;;;;;;;8.74;93.85;95171.88;5072314;28;20186;-78
2023/11/21 09:30:14;;;;;;;5.23;4.83;;;;;;;8.79;93.89;95176.66;5072210;28;20212;-79
2023/11/21 09:32:40;;;;;;;6.00;5.60;;;;;;;8.75;93.53;95170.97;5074731;28;20202;-79
2023/11/21 09:35:08;;;;;;;4.80;4.43;;;;;;;8.93;93.72;95177.94;5048280;28;20181;-78
2023/11/21 09:37:33;;;;;;;5.50;5.10;;;;;;;8.80;93.58;95181.66;5064939;28;20208;-84
2023/11/21 09:39:58;;;;;;;6.57;5.97;;;;;;;8.93;93.48;95186.50;5048062;28;20209;-80
2023/11/21 09:42:36;;;;;;;4.80;4.40;;;;;;;9.04;93.45;95193.25;5068678;28;20257;-79
2023/11/21 09:45:07;;;;;;;3.10;2.90;;;;;;;8.99;93.65;95191.09;5072755;28;20203;-79
2023/11/21 09:47:35;;;;;;;2.83;2.63;;;;;;;8.92;93.72;95199.59;5069568;28;20181;-79
2023/11/21 09:50:01;;;;;;;7.27;5.27;;;;;;;9.08;93.61;95192.81;5050454;28;20178;-79
2023/11/21 09:52:27;;;;;;;5.37;4.70;;;;;;;9.14;93.61;95191.41;5054984;28;20206;-79
2023/11/21 09:54:54;;;;;;;1.80;1.70;;;;;;;8.93;93.83;95198.66;5066505;28;20188;-79
2023/11/21 09:57:23;;;;;;;1.13;1.13;;;;;;;8.98;93.54;95194.66;5057157;28;20196;-79
2023/11/21 09:59:58;;;;;;;1.47;1.13;;;;;;;9.06;93.61;95196.50;5066239;28;20198;-79
2023/11/21 10:02:26;;;;;;;1.00;1.00;;;;;;;8.98;93.12;95188.66;5050510;28;20194;-79
2023/11/21 10:04:52;;;;;;;1.27;1.23;;;;;;;8.97;93.38;95192.22;5050195;28;20215;-79
2023/11/21 10:07:17;;;;;;;1.10;1.10;;;;;;;8.79;93.64;95190.41;5069884;28;20181;-79
2023/11/21 10:09:43;;;;;;;0.80;0.80;;;;;;;8.83;94.75;95197.88;5055922;28;20190;-79
2023/11/21 10:12:09;;;;;;;0.93;0.93;;;;;;;8.92;94.16;95200.44;5065049;28;20571;-79
2023/11/21 10:14:37;;;;;;;2.30;2.10;;;;;;;8.95;93.91;95188.94;5052622;28;20245;-78
2023/11/21 10:17:02;;;;;;;3.47;2.17;;;;;;;8.78;94.47;95191.38;5054186;28;20677;-79
2023/11/21 10:19:28;;;;;;;2.90;2.70;;;;;;;8.90;94.96;95191.97;5072853;28;20217;-79
2023/11/21 10:21:54;;;;;;;3.83;3.00;;;;;;;8.91;94.31;95203.13;5068539;28;20227;-79
2023/11/21 10:24:19;;;;;;;4.90;3.83;;;;;;;8.79;95.12;95198.16;5066865;28;20174;-78
2023/11/21 10:26:48;;;;;;;53.00;6.40;;;;;;;8.75;94.97;95193.44;5066604;28;20238;-79
2023/11/21 10:29:16;;;;;;;24.97;6.37;;;;;;;8.68;96.19;95200.97;5059461;28;20606;-79
2023/11/21 10:31:42;;;;;;;119.77;10.73;;;;;;;8.77;95.47;95202.69;5075809;28;20208;-79
2023/11/21 10:34:15;;;;;;;12.63;5.27;;;;;;;8.95;95.04;95207.91;5066442;28;20186;-79
2023/11/21 10:36:40;;;;;;;186.47;16.43;;;;;;;8.74;96.21;95208.13;5071726;28;20569;-80
2023/11/21 10:39:05;;;;;;;66.90;8.20;;;;;;;8.72;95.84;95209.25;5070442;28;20221;-79
2023/11/21 10:41:30;;;;;;;18.93;7.10;;;;;;;8.74;96.68;95208.13;5077871;28;20307;-79
2023/11/21 10:43:56;;;;;;;30.63;7.10;;;;;;;8.84;96.19;95202.94;5073467;28;20193;-79
2023/11/21 10:46:23;;;;;;;51.30;8.50;;;;;;;8.79;96.20;95208.53;5065825;28;20234;-78
2023/11/21 10:48:54;;;;;;;128.67;12.20;;;;;;;8.86;96.37;95206.19;5072790;28;20174;-78
2023/11/21 10:51:20;;;;;;;8.07;6.00;;;;;;;8.71;96.46;95205.84;5054676;28;20279;-79
2023/11/21 10:53:46;;;;;;;8.03;7.10;;;;;;;8.83;96.24;95200.47;5070447;28;20252;-79
2023/11/21 10:56:17;;;;;;;8.50;7.63;;;;;;;8.89;96.03;95211.06;5048803;28;20557;-79
2023/11/21 10:58:43;;;;;;;7.90;7.10;;;;;;;8.87;95.35;95209.59;5070509;28;20194;-79
2023/11/21 11:01:11;;;;;;;7.50;6.73;;;;;;;9.04;94.66;95216.56;5070041;28;20200;-79
2023/11/21 11:03:37;;;;;;;7.73;6.90;;;;;;;9.03;95.29;95217.53;5056455;28;20185;-80
2023/11/21 11:06:04;;;;;;;8.40;7.47;;;;;;;9.12;95.10;95211.47;5045765;28;20209;-79
2023/11/21 11:08:30;;;;;;;8.27;7.37;;;;;;;8.92;95.39;95215.97;5063241;28;20174;-79
2023/11/21 11:10:56;;;;;;;11.57;7.10;;;;;;;8.92;95.47;95212.53;5054546;28;20185;-79
2023/11/21 11:13:22;;;;;;;9.43;8.10;;;;;;;8.87;95.63;95214.75;5071642;28;20188;-80
2023/11/21 11:15:48;;;;;;;22.77;16.37;;;;;;;9.07;94.38;95214.50;5052369;28;20243;-78
2023/11/21 11:18:14;;;;;;;63.57;32.93;;;;;;;8.95;95.05;95212.25;5067304;28;20186;-80
2023/11/21 11:20:40;;;;;;;45.30;28.37;;;;;;;9.10;94.80;95213.41;5060798;28;20705;-79
2023/11/21 11:23:27;;;;;;;20.53;18.50;;;;;;;9.06;95.03;95225.00;5069955;28;20174;-79
2023/11/21 11:26:31;;;;;;;15.63;14.07;;;;;;;8.95;95.15;95233.78;5043039;28;20192;-79
2023/11/21 11:29:27;;;;;;;12.80;11.50;;;;;;;8.92;95.05;95230.66;5064909;28;20181;-79
2023/11/21 11:32:04;;;;;;;12.93;11.30;;;;;;;8.67;96.23;95229.59;5072263;28;20203;-79
2023/11/21 11:34:37;;;;;;;12.23;9.70;;;;;;;8.48;96.75;95228.72;5069131;28;20185;-79